Vinnings, Georgia
Current Conditions -  °F | °C
As of 12:25 PM on Sunday 23 Nov 2014 (Local Time) from KMGE Reporting Station
Thunderstorm Thunderstorm  
Wind Chill: 50°   Ceiling: 400
Heat Index: 50°   Visibility: 3mi
Dew Point: 50°   Wind: 14mph
Humidity: 100%   Direction: 100°E
Pressure: 29.89"   Gusts: 16mph
Location:  33.8691°N, 84.4633°W
Report Text: KMGE 231725Z 10012G14KT 3SM -TSRA BR OVC004CB 10/10 A2989 RMK AO2A TS 5E MOV NW $
Loading
Personal Weather Stations






























Interactive Weather Map New forecast layout! Learn more

10-Day Weather Forecast

Advertisements
Track Severe Weather on mobile